• Join FlightAware (Why Join?)
  • Login
  • US Flag 
07:45PM EDT


 

Airport Tracker/Info


-or-


 

Live Flight TrackerFlight Track Log ✈ AAL1305 ✈ 27-Mar-2014 ✈ KPBI - KDFW

Flight Track Log - Related Links

Times and Time Zones

All times are in EDT time to prevent confusion due to time zone crossing. See the AAL1305 flight status page for this flight to view local times or setup timezone preferences in your user account.

Time Position Orientation Groundspeed Altitude Reporting Facility
EDT Latitude Longitude Course Direction KTS MPH feet Rate Location/Type
02:06PM 26.7381 -79.9969 332° Northwest 256 295 3,200  Level Miami Center
02:07PM 26.8067 -80.0150 347° North 272 313 5,600 2,760 Climbing Miami Center
02:08PM 26.8322 -80.2055 276° West  Level FlightAware Approximate
02:08PM 26.8297 -80.1064 286° West 240 276 8,800  Level Miami Center
02:09PM 26.8500 -80.3134 270° West  Level FlightAware Approximate
02:09PM 26.8422 -80.1931 279° West 261 300 10,800  Level Miami Center
02:10PM 26.9397 -80.3602 338° Northwest  Level FlightAware Approximate
02:10PM 26.8608 -80.2983 281° West 315 362 12,700  Level Miami Center
02:11PM 27.0333 -80.4018 338° Northwest  Level FlightAware Approximate
02:11PM 26.9239 -80.3675 316° Northwest 348 400 15,400  Level Miami Center
02:12PM 27.1239 -80.4510 332° Northwest  Level FlightAware Approximate
02:12PM 26.9992 -80.4469 317° Northwest 359 413 17,900  Level Miami Center
02:13PM 27.0803 -80.5356 316° Northwest 370 426 21,200 2,580 Climbing Miami Center
02:14PM 27.1556 -80.6150 317° Northwest 370 426 23,100 1,800 Climbing Miami Center
02:15PM 27.2328 -80.6969 317° Northwest 370 426 24,800 1,680 Climbing Miami Center
02:16PM 27.3161 -80.7839 317° Northwest 393 452 26,500 1,620 Climbing Miami Center
02:17PM 27.4014 -80.8708 318° Northwest 399 459 28,100 1,620 Climbing Miami Center
02:18PM 27.4803 -80.9603 315° West 399 459 29,800 900 Climbing Miami Center
02:19PM 27.5614 -81.0475 316° Northwest 399 459 30,000 60 Climbing Miami Center
02:20PM 27.6175 -81.1269 309° West 399 459 30,000  Level Miami Center
02:21PM 27.6786 -81.2464 300° West 404 465 30,000  Level Miami Center
02:22PM 27.7356 -81.3564 300° West 404 465 30,000  Level Miami Center
02:23PM 27.7986 -81.4764 301° West 409 471 30,000 -60 Level Miami Center
02:24PM 27.8706 -81.5778 309° West 409 471 29,900 -60 Descending Miami Center
02:25PM 27.9594 -81.6639 319° Northwest 409 471 29,900 660 Level Miami Center
02:28PM 28.1436 -81.8522 318° Northwest 409 471 32,200 1,200 Climbing Jacksonville Center
02:29PM 28.2256 -81.9339 319° Northwest 404 465 34,000 900 Climbing Jacksonville Center
02:30PM 28.3158 -82.0014 327° Northwest 391 450 34,000  Level Jacksonville Center
02:31PM 28.4144 -82.0642 331° Northwest 391 450 34,000  Level Jacksonville Center
02:32PM 28.5128 -82.1247 332° Northwest 401 461 34,000  Level Jacksonville Center
02:33PM 28.5947 -82.2069 319° Northwest 396 456 34,000 -60 Level Jacksonville Center
02:34PM 28.6744 -82.2939 316° Northwest 396 456 33,900  Descending Jacksonville Center
02:35PM 28.7603 -82.3858 317° Northwest 384 442 34,000  Climbing Jacksonville Center
02:36PM 28.8422 -82.4753 316° Northwest 384 442 34,000  Level Jacksonville Center
02:37PM 28.9239 -82.5653 316° Northwest 394 453 34,000  Level Jacksonville Center
02:38PM 29.0075 -82.6550 317° Northwest 399 459 34,000  Level Jacksonville Center
02:39PM 29.0911 -82.7453 317° Northwest 404 465 34,000  Level Jacksonville Center
02:40PM 29.1706 -82.8356 315° West 404 465 34,000  Level Jacksonville Center
02:41PM 29.2519 -82.9236 317° Northwest 404 465 34,000 -60 Level Jacksonville Center
02:42PM 29.3333 -83.0142 316° Northwest 404 465 33,900  Descending Jacksonville Center
02:43PM 29.4144 -83.1025 317° Northwest 404 465 34,000  Climbing Jacksonville Center
02:44PM 29.4853 -83.1836 315° West 404 465 33,900 -60 Descending Jacksonville Center
02:45PM 29.5686 -83.2722 317° Northwest 412 474 33,900  Level Jacksonville Center
02:46PM 29.6478 -83.3633 315° West 405 466 33,900  Level Jacksonville Center
02:47PM 29.7286 -83.4497 317° Northwest 405 466 33,900  Level Jacksonville Center
02:48PM 29.8097 -83.5364 317° Northwest 405 466 33,900  Level Jacksonville Center
02:49PM 29.8739 -83.6375 306° West 399 459 33,900  Level Jacksonville Center
02:50PM 29.9150 -83.7481 293° West 385 443 34,000  Climbing Jacksonville Center
02:51PM 29.9600 -83.8586 295° West 380 437 34,000  Level Jacksonville Center
02:52PM 30.0011 -83.9694 293° West 380 437 34,000 -60 Level Jacksonville Center
02:53PM 30.0439 -84.0756 295° West 380 437 33,900  Descending Jacksonville Center
02:54PM 30.0825 -84.1792 293° West 374 430 34,000  Climbing Jacksonville Center
02:55PM 30.1231 -84.2878 293° West 374 430 34,000  Level Jacksonville Center
02:56PM 30.1658 -84.3967 294° West 369 425 34,000  Level Jacksonville Center
02:57PM 30.2042 -84.5028 293° West 369 425 34,000  Level Jacksonville Center
02:58PM 30.2486 -84.6142 295° West 369 425 34,000  Level Jacksonville Center
02:59PM 30.2889 -84.7208 294° West 369 425 34,000  Level Jacksonville Center
03:00PM 30.3292 -84.8275 294° West 369 425 34,000 -60 Level Jacksonville Center
03:01PM 30.3692 -84.9342 294° West 369 425 33,900 -60 Descending Jacksonville Center
03:02PM 30.4092 -85.0411 293° West 369 425 33,900  Level Jacksonville Center
03:03PM 30.4511 -85.1481 294° West 369 425 34,000  Climbing Jacksonville Center
03:04PM 30.4908 -85.2575 293° West 369 425 34,000 -60 Level Jacksonville Center
03:05PM 30.5328 -85.3644 295° West 369 425 33,900  Descending Jacksonville Center
03:06PM 30.5725 -85.4717 293° West 364 419 34,000  Climbing Jacksonville Center
03:07PM 30.6139 -85.5814 294° West 364 419 34,000  Level Jacksonville Center
03:08PM 30.6511 -85.6911 292° West 364 419 34,000  Level Jacksonville Center
03:09PM 30.6925 -85.8011 294° West 364 419 34,000  Level Jacksonville Center
03:10PM 30.7339 -85.9111 294° West 369 425 34,000  Level Jacksonville Center
03:11PM 30.7750 -86.0236 293° West 369 425 34,000 -60 Level Jacksonville Center
03:12PM 30.8119 -86.1361 291° West 376 433 33,900  Descending Jacksonville Center
03:13PM 30.8192 -86.2525 274° West 371 427 34,000  Climbing Jacksonville Center
03:14PM 30.8181 -86.3708 269° West 366 421 33,900 -60 Descending Jacksonville Center
03:15PM 30.8228 -86.5017 272° West 375 432 33,900  Level Jacksonville Center
03:16PM 30.8217 -86.6203 269° West 375 432 34,000  Climbing Jacksonville Center
03:17PM 30.8353 -86.7247 279° West 370 426 34,000  Level Jacksonville Center
03:18PM 30.8525 -86.8392 280° West 364 419 34,000  Level Jacksonville Center
03:19PM 30.8697 -86.9536 280° West 370 426 34,000  Level Jacksonville Center
03:20PM 30.8847 -87.0703 279° West 370 426 34,000  Level Jacksonville Center
03:21PM 30.9017 -87.1872 280° West 370 426 34,000  Level Jacksonville Center
03:23PM 30.9325 -87.4186 279° West 366 421 34,000  Level Houston Center
03:24PM 30.9489 -87.5369 279° West 369 425 34,000  Level Houston Center
03:25PM 30.9667 -87.6558 280° West 371 427 34,000 -60 Level Houston Center
03:26PM 30.9850 -87.7850 279° West 376 433 33,900 -60 Descending Houston Center
03:27PM 31.0017 -87.9056 279° West 376 433 33,900  Level Houston Center
03:28PM 31.0183 -88.0244 279° West 376 433 34,000  Climbing Houston Center
03:29PM 31.0386 -88.1697 279° West 377 434 34,000  Level Houston Center
03:30PM 31.0539 -88.2922 278° West 380 437 34,000  Level Houston Center
03:31PM 31.0708 -88.4153 279° West 385 443 34,000  Level Houston Center
03:32PM 31.0878 -88.5386 279° West 385 443 34,000  Level Houston Center
03:33PM 31.1044 -88.6672 279° West 387 445 34,000  Level Houston Center
03:34PM 31.1208 -88.7919 279° West 388 447 34,000  Level Houston Center
03:35PM 31.1397 -88.9339 279° West 388 447 34,000  Level Houston Center
03:36PM 31.1550 -89.0567 278° West 386 444 34,000 -60 Level Houston Center
03:37PM 31.1711 -89.1803 279° West 387 445 33,900 -60 Descending Houston Center
03:38PM 31.1875 -89.3042 279° West 388 447 33,900  Level Houston Center
03:39PM 31.2053 -89.4506 278° West 383 441 34,000  Climbing Houston Center
03:40PM 31.2206 -89.5725 278° West 382 440 33,900  Descending Houston Center
03:41PM 31.2358 -89.6958 278° West 384 442 34,000  Climbing Houston Center
03:42PM 31.2522 -89.8192 279° West 385 443 33,900  Descending Houston Center
03:43PM 31.2669 -89.9433 278° West 385 443 34,000  Climbing Houston Center
03:44PM 31.2839 -90.0936 278° West 388 447 33,900  Descending Houston Center
03:45PM 31.3003 -90.2181 279° West 388 447 34,000  Climbing Houston Center
03:46PM 31.3036 -90.3436 272° West 389 448 33,900  Descending Houston Center
03:47PM 31.3006 -90.4689 268° West 388 447 34,000  Climbing Houston Center
03:49PM 31.3006 -90.5936 270° West 388 447 34,000  Level Houston Center
03:50PM 31.2967 -90.7425 268° West 386 444 34,000  Level Houston Center
03:51PM 31.2958 -90.8678 270° West 386 444 34,000  Level Houston Center
03:52PM 31.2942 -90.9928 269° West 386 444 34,000  Level Houston Center
03:53PM 31.2914 -91.1181 269° West 389 448 34,000  Level Houston Center
03:54PM 31.2875 -91.2447 268° West 390 449 34,000  Level Houston Center
03:55PM 31.2833 -91.3958 268° West 390 449 34,000  Level Houston Center
03:56PM 31.2817 -91.5222 269° West 389 448 34,000  Level Houston Center
03:57PM 31.2781 -91.6472 268° West 389 448 34,000  Level Houston Center
03:58PM 31.2753 -91.8456 269° West 386 444 34,000  Level Fort Worth Center
03:59PM 31.2711 -91.9700 268° West 386 444 34,000  Level Fort Worth Center
04:01PM 31.2650 -92.1642 268° West 384 442 34,000  Level Houston Center
04:02PM 31.2617 -92.2889 268° West 384 442 34,000 -60 Level Houston Center
04:03PM 31.2592 -92.4136 269° West 384 442 33,900  Descending Houston Center
04:04PM 31.2547 -92.5383 268° West 385 443 34,000  Climbing Houston Center
04:05PM 31.2503 -92.6881 268° West 385 443 34,000  Level Houston Center
04:06PM 31.2458 -92.8117 268° West 385 443 34,000 -60 Level Houston Center
04:07PM 31.2414 -92.9347 268° West 383 441 33,900  Descending Houston Center
04:08PM 31.2361 -93.0578 267° West 383 441 34,000  Climbing Houston Center
04:09PM 31.2314 -93.1817 267° West 383 441 34,000 -60 Level Houston Center
04:10PM 31.2253 -93.3308 267° West 384 442 33,900  Descending Houston Center
04:11PM 31.2208 -93.4550 268° West 384 442 34,000  Climbing Houston Center
04:12PM 31.2147 -93.5781 267° West 384 442 33,900 -60 Descending Houston Center
04:13PM 31.2061 -93.7017 265° West 384 442 33,900  Level Houston Center
04:14PM 31.1781 -93.8197 255° West 381 438 34,000  Climbing Houston Center
04:15PM 31.1456 -93.9542 254° West 382 440 34,000  Level Houston Center
04:17PM 31.1131 -94.0719 252° West 382 440 34,000  Level Houston Center
04:18PM 31.0797 -94.1906 252° West 382 440 34,000  Level Houston Center
04:19PM 31.0492 -94.3103 253° West 382 440 34,000  Level Houston Center
04:20PM 31.0875 -94.4517 288° West 398 458 34,000  Level Houston Center
04:21PM 31.1525 -94.5542 307° West 396 456 34,000  Level Houston Center
04:22PM 31.2211 -94.6614 307° West 396 456 34,000 -60 Level Houston Center
04:23PM 31.2883 -94.7622 308° West 396 456 33,900  Descending Houston Center
04:24PM 31.3564 -94.8769 305° West 396 456 34,000  Climbing Houston Center
04:25PM 31.4206 -94.9789 306° West 393 452 34,000 -300 Level Houston Center
04:26PM 31.4819 -95.0825 305° West 390 449 33,500 -720 Descending Houston Center
04:27PM 31.5256 -95.1958 294° West 383 441 32,600 -960 Descending Houston Center
04:28PM 31.5772 -95.3075 299° West 386 444 31,600 -1,020 Descending Houston Center
04:29PM 31.6564 -95.4322 307° West 396 456 30,500 -1,020 Descending Houston Center
04:29PM 31.6842 -95.4750 307° West 399 459 30,100 -960 Descending Fort Worth Center
04:30PM 31.7544 -95.5789 309° West 402 463 29,100 -540 Descending Fort Worth Center
04:32PM 31.8258 -95.6831 309° West 408 470 29,000 -60 Descending Fort Worth Center
04:33PM 31.9089 -95.8044 309° West 399 459 29,000 -60 Level Fort Worth Center
04:34PM 31.9767 -95.8958 311° West 398 458 28,900 -1,080 Descending Fort Worth Center
04:35PM 32.0483 -95.9961 310° West 398 458 26,800 -2,280 Descending Fort Worth Center
04:36PM 32.1189 -96.0903 312° West 386 444 24,200 -2,700 Descending Fort Worth Center
04:37PM 32.1969 -96.1978 311° West 362 417 21,200 -2,520 Descending Fort Worth Center
04:38PM 32.2644 -96.2867 312° West 350 403 19,000 -2,220 Descending Fort Worth Center
04:39PM 32.3239 -96.3683 311° West 330 380 16,700 -1,980 Descending Fort Worth Center
04:40PM 32.3886 -96.4586 310° West 331 381 15,000 -1,500 Descending Fort Worth Center
04:41PM 32.4500 -96.5319 315° West 320 368 13,700 -1,380 Descending Fort Worth Center
04:42PM 32.5197 -96.6125 316° Northwest 322 371 12,200 -1,320 Descending Fort Worth Center
04:43PM 32.5819 -96.6878 314° West 321 369 11,000 -600 Descending Fort Worth Center
04:44PM 32.6469 -96.7644 315° West 326 375 11,000  Level Fort Worth Center
04:45PM 32.7125 -96.8436 315° West 313 360 11,000  Level Fort Worth Center
04:46PM 32.7806 -96.9033 324° Northwest 313 360 11,000 -180 Level Fort Worth Center
04:47PM 32.8667 -96.9042 360° North 289 333 10,700 -960 Descending Fort Worth Center
04:48PM 32.9378 -96.9053 359° North 261 300 9,100 -1,440 Descending Fort Worth Center
04:49PM 33.0050 -96.9097 357° North 245 282 7,800 -1,620 Descending Fort Worth Center
04:50PM 33.0567 -96.9444 331° Northwest 201 231 5,800 -2,040 Descending Fort Worth Center
04:51PM 33.0525 -96.9997 265° West 175 201 3,600 -1,560 Descending Fort Worth Center
04:52PM 33.0067 -97.0103 191° South 158 182 2,600 -900 Descending Fort Worth Center
04:53PM 32.9625 -97.0097 179° South 158 182 1,800 -780 Descending Fort Worth Center
04:54PM 32.9256 -97.0111 182° South 137 158 1,100 -600 Descending Fort Worth Center
04:55PM 32.8864 -97.0094 178° South 135 155 600 -480 Descending Fort Worth Center